Flight Track Log - Related Links

Times and Time Zones

All times are in EDT time to prevent confusion due to time zone crossing. See the RPA3869 flight status page for this flight to view local times or setup timezone preferences in your user account.

Time Position Orientation Groundspeed Altitude Reporting Facility
EDT Latitude Longitude Course Direction KTS MPH feet Rate Location/Type
Wed 01:12:27 PM 33.6186 -78.8947 59° Northeast 214 246 2,100  Level Jacksonville Center
Wed 01:13:27 PM 33.6544 -78.8381 53° Northeast 237 273 4,200 2,083 Climbing Jacksonville Center
Wed 01:14:28 PM 33.7094 -78.7981 31° Northeast 225 259 6,300 2,250 Climbing Jacksonville Center
Wed 01:15:00 PM 33.9548 -78.4798 64° Northeast  Level FlightAware Approximate
Wed 01:15:27 PM 33.7647 -78.7606 29° Northeast 225 259 8,700  Level Jacksonville Center
Wed 01:16:00 PM 34.0136 -78.3913 46° Northeast  Level FlightAware Approximate
Wed 01:16:27 PM 33.8156 -78.7233 31° Northeast 220 253 10,500  Level Jacksonville Center
Wed 01:17:00 PM 34.0647 -78.3040 59° Northeast  Level FlightAware Approximate
Wed 01:17:28 PM 33.8572 -78.6561 53° Northeast 225 259 12,200  Level Jacksonville Center
Wed 01:19:11 PM 33.9353 -78.5353 52° Northeast 266 306 14,700 1,342 Climbing Washington Center
Wed 01:20:09 PM 33.9808 -78.4644 52° Northeast 266 306 15,800 1,068 Climbing Washington Center
Wed 01:21:09 PM 34.0286 -78.3883 53° Northeast 271 312 16,800 992 Climbing Washington Center
Wed 01:22:10 PM 34.0783 -78.3097 53° Northeast 271 312 17,800 934 Climbing Washington Center
Wed 01:23:11 PM 34.1281 -78.2361 51° Northeast 271 312 18,700 900 Climbing Washington Center
Wed 01:24:10 PM 34.1778 -78.1575 53° Northeast 276 318 19,600 857 Climbing Washington Center
Wed 01:25:10 PM 34.2208 -78.0858 54° Northeast 281 323 20,400 694 Climbing Washington Center
Wed 01:26:11 PM 34.2769 -77.9947 53° Northeast 297 342 21,000 303 Climbing Washington Center
Wed 01:27:09 PM 34.3264 -77.9206 51° Northeast 302 348 21,000  Level Washington Center
Wed 01:28:11 PM 34.4008 -77.8597 34° Northeast 315 362 21,000  Level Washington Center
Wed 01:29:11 PM 34.4908 -77.8422 North 308 354 21,000  Level Washington Center
Wed 01:30:09 PM 34.5831 -77.8194 11° North 314 361 21,000  Level Washington Center
Wed 01:31:10 PM 34.6753 -77.7967 11° North 327 376 21,000  Level Washington Center
Wed 01:32:10 PM 34.7675 -77.7764 10° North 332 382 21,000  Level Washington Center
Wed 01:33:10 PM 34.8658 -77.7489 13° North 332 382 21,000  Level Washington Center
Wed 01:34:11 PM 34.9583 -77.7233 13° North 337 388 21,000  Level Washington Center
Wed 01:35:11 PM 35.0503 -77.7028 10° North 337 388 21,000  Level Washington Center
Wed 01:36:09 PM 35.1428 -77.6775 13° North 337 388 21,000  Level Washington Center
Wed 01:37:09 PM 35.2347 -77.6544 12° North 332 382 21,000  Level Washington Center
Wed 01:38:10 PM 35.3292 -77.6314 11° North 332 382 21,000  Level Washington Center
Wed 01:39:10 PM 35.4192 -77.6081 12° North 332 382 21,000  Level Washington Center
Wed 01:40:11 PM 35.5114 -77.5850 12° North 332 382 21,000  Level Washington Center
Wed 01:41:09 PM 35.6036 -77.5617 12° North 332 382 21,000  Level Washington Center
Wed 01:42:09 PM 35.6958 -77.5383 12° North 332 382 21,000  Level Washington Center
Wed 01:43:10 PM 35.7900 -77.5150 11° North 332 382 21,000  Level Washington Center
Wed 01:44:11 PM 35.8822 -77.4942 10° North 332 382 21,000  Level Washington Center
Wed 01:45:09 PM 35.9744 -77.4708 12° North 332 382 21,000  Level Washington Center
Wed 01:46:09 PM 36.0667 -77.4472 12° North 332 382 21,000  Level Washington Center
Wed 01:47:10 PM 36.1608 -77.4236 11° North 332 382 21,000  Level Washington Center
Wed 01:48:11 PM 36.2406 -77.4050 11° North 332 382 21,000  Level Washington Center
Wed 01:49:11 PM 36.3328 -77.3761 14° North 332 382 21,000  Level Washington Center
Wed 01:50:09 PM 36.4228 -77.3550 11° North 332 382 21,000  Level Washington Center
Wed 01:51:10 PM 36.5147 -77.3311 12° North 332 382 21,000  Level Washington Center
Wed 01:52:11 PM 36.6028 -77.3022 15° North 332 382 21,000  Level Washington Center
Wed 01:53:09 PM 36.6931 -77.2628 19° North 337 388 21,000  Level Washington Center
Wed 01:54:10 PM 36.7814 -77.2256 19° North 337 388 21,000  Level Washington Center
Wed 01:55:11 PM 36.8694 -77.1911 17° North 337 388 21,000  Level Washington Center
Wed 01:56:11 PM 36.9575 -77.1514 20° North 337 388 21,000  Level Washington Center
Wed 01:57:09 PM 37.0561 -77.1092 19° North 332 382 21,000  Level Washington Center
Wed 01:58:09 PM 37.1419 -77.0744 18° North 332 382 21,000  Level Washington Center
Wed 01:59:10 PM 37.2300 -77.0369 19° North 325 374 21,000  Level Washington Center
Wed 02:00:10 PM 37.3181 -76.9994 19° North 325 374 21,000  Level Washington Center
Wed 02:01:11 PM 37.3978 -76.9669 18° North 325 374 21,000  Level Washington Center
Wed 02:02:11 PM 37.4922 -76.9267 19° North 325 374 21,000  Level Washington Center
Wed 02:03:09 PM 37.5781 -76.8889 19° North 340 391 21,000  Level Washington Center
Wed 02:04:10 PM 37.6661 -76.8511 19° North 340 391 21,000  Level Washington Center
Wed 02:05:10 PM 37.7542 -76.8131 19° North 334 384 21,000  Level Washington Center
Wed 02:06:11 PM 37.8419 -76.7750 19° North 334 384 21,000  Level Washington Center
Wed 02:07:11 PM 37.9322 -76.7369 18° North 334 384 21,000  Level Washington Center
Wed 02:08:11 PM 38.0181 -76.6831 26° Northeast 329 379 21,000  Level Washington Center
Wed 02:09:09 PM 38.1042 -76.6289 26° Northeast 334 384 21,000 -661 Level Washington Center
Wed 02:10:09 PM 38.1900 -76.5719 28° Northeast 339 390 19,700 -1,377 Descending Washington Center
Wed 02:11:11 PM 38.2781 -76.5175 26° Northeast 344 396 18,200 -1,574 Descending Washington Center
Wed 02:12:11 PM 38.3744 -76.4578 26° Northeast 344 396 16,500 -1,627 Descending Washington Center
Wed 02:13:09 PM 38.4644 -76.4006 26° Northeast 344 396 15,000 -1,513 Descending Washington Center
Wed 02:14:10 PM 38.5483 -76.3456 27° Northeast 344 396 13,500 -984 Descending Washington Center
Wed 02:15:11 PM 38.6297 -76.2986 24° Northeast 332 382 13,000 -198 Descending Washington Center
Wed 02:16:11 PM 38.7133 -76.2728 14° North 317 365 13,100 -500 Climbing Washington Center
Wed 02:17:11 PM 38.8011 -76.2256 23° Northeast 317 365 12,000 -1,017 Descending Washington Center
Wed 02:18:09 PM 38.8806 -76.1783 25° Northeast 312 359 11,100 -504 Descending Washington Center
Wed 02:19:10 PM 38.9683 -76.1283 24° Northeast 324 373 11,000 -49 Descending Washington Center
Wed 02:20:11 PM 39.0519 -76.0833 23° Northeast 319 367 11,000  Level Washington Center
Wed 02:21:12 PM 39.1333 -76.0386 23° Northeast 314 361 11,000  Level Washington Center
Wed 02:22:09 PM 39.2128 -75.9908 25° Northeast 314 361 11,000  Level Washington Center
Wed 02:23:10 PM 39.2922 -75.9456 24° Northeast 314 361 11,000 34 Level Washington Center
Wed 02:25:08 PM 39.4667 -75.8500 23° Northeast 330 380 11,100 34 Climbing Philadelphia TRACON
Wed 02:26:08 PM 39.5333 -75.7833 38° Northeast 359 413 11,100  Level Philadelphia TRACON
Wed 02:27:14 PM 39.6000 -75.6667 53° Northeast 336 387 11,100  Level Philadelphia TRACON
Wed 02:28:08 PM 39.6333 -75.5667 67° East 334 384 11,100  Level Philadelphia TRACON
Wed 02:29:02 PM 39.6667 -75.4833 63° Northeast 329 379 11,100  Level Philadelphia TRACON
Wed 02:31:02 PM 39.7500 -75.2667 63° Northeast 316 364 11,100 -32 Level Philadelphia TRACON
Wed 02:32:08 PM 39.7833 -75.1667 67° East 279 321 11,000 -500 Descending Philadelphia TRACON
Wed 02:33:02 PM 39.8167 -75.0833 62° Northeast 274 315 10,100 -1,474 Descending Philadelphia TRACON
Wed 02:34:02 PM 39.8667 -74.9833 57° Northeast 313 360 8,200 -1,537 Descending Philadelphia TRACON
Wed 02:35:03 PM 39.9167 -74.9167 46° Northeast 289 333 7,000 -595 Descending Philadelphia TRACON
Wed 02:36:03 PM 39.9667 -74.8333 52° Northeast 293 337 7,000  Level Philadelphia TRACON
Wed 02:37:09 PM 40.0333 -74.7500 44° Northeast 294 338 7,000  Level Philadelphia TRACON
Wed 02:38:20 PM 40.1000 -74.6667 44° Northeast 291 335 7,000  Level New York TRACON
Wed 02:39:26 PM 40.1833 -74.6333 17° North 284 327 7,000  Level New York TRACON
Wed 02:40:20 PM 40.2500 -74.6000 21° North 283 326 7,000  Level New York TRACON
Wed 02:41:20 PM 40.3333 -74.5833 North 285 328 7,000 -300 Level New York TRACON
Wed 02:42:20 PM 40.4000 -74.5667 11° North 276 318 6,400 -450 Descending New York TRACON
Wed 02:43:20 PM 40.4833 -74.5333 17° North 274 315 6,100 -150 Descending New York TRACON
Wed 02:44:20 PM 40.5500 -74.5333 360° North 281 323 6,100  Level New York TRACON
Wed 02:45:27 PM 40.6333 -74.5167 North 282 325 6,100  Level New York TRACON
Wed 02:46:33 PM 40.7167 -74.5167 360° North 280 322 6,100  Level New York TRACON
Wed 02:47:27 PM 40.8000 -74.5000 North 278 320 6,100 -316 Level New York TRACON
Wed 02:48:27 PM 40.8667 -74.5000 360° North 291 335 5,500 -500 Descending New York TRACON
Wed 02:49:27 PM 40.9167 -74.4000 56° Northeast 280 322 5,100 -200 Descending New York TRACON
Wed 02:50:27 PM 40.9667 -74.3500 37° Northeast 260 299 5,100 -250 Level New York TRACON
Wed 02:51:27 PM 41.0167 -74.2667 51° Northeast 279 321 4,600 -550 Descending New York TRACON
Wed 02:52:27 PM 40.9833 -74.1833 118° Southeast 241 277 4,000 -650 Descending New York TRACON
Wed 02:53:27 PM 40.9500 -74.1167 123° Southeast 236 272 3,300 -500 Descending New York TRACON
Wed 02:54:27 PM 40.9000 -74.0833 153° Southeast 201 231 3,000 -400 Descending New York TRACON
Wed 02:55:27 PM 40.8500 -74.0833 180° South 181 208 2,500 -500 Descending New York TRACON

Login

Don't have an account? Register now (free) for customized features, flight alerts, and more!